St Pete Beach, Florida
Current Conditions -  °F | °C
As of 2:53 PM on Monday 22 Dec 2014 (Local Time) from KSPG Reporting Station
Few Clouds Few Clouds  
Wind Chill: 75°   Ceiling: Unl
Heat Index: 75°   Visibility: 10mi
Dew Point: 69°   Wind: 16mph
Humidity: 82%   Direction: 200°SSW
Pressure: 29.89"   Gusts: NA
Location:  27.7426°N, 82.7481°W
Report Text: KSPG 221953Z 20014KT 10SM FEW044 24/21 A2989 RMK AO2 SLP120 T02390206
Loading
Personal Weather Stations






























Interactive Weather Map New forecast layout! Learn more

10-Day Weather Forecast

Advertisements
Track Severe Weather on mobile